Time;durP1;ratioP1;P1;durP2;ratioP2;P2;SDS_P1;SDS_P2;PMS_P1;PMS_P2;Temp;Humidity;BMP_temperature;BMP_pressure;BME280_temperature;BME280_humidity;BME280_pressure;Samples;Min_cycle;Max_cycle;Signal;HPM_P1;HPM_P2
2022/08/19 00:01:19;;;;;;;3.63;2.60;;;;;;;25.18;50.52;92819.53;4886751;29;20090;-95
2022/08/19 00:03:44;;;;;;;3.38;2.88;;;;;;;25.17;50.38;92834.66;4887665;29;20557;-93
2022/08/19 00:06:10;;;;;;;3.40;2.53;;;;;;;25.16;50.59;92827.66;4902699;29;20027;-93
2022/08/19 00:08:35;;;;;;;2.35;2.00;;;;;;;25.15;50.51;92850.34;4902529;29;20039;-93
2022/08/19 00:11:01;;;;;;;3.63;2.65;;;;;;;25.14;50.50;92849.63;4918370;29;20488;-94
2022/08/19 00:13:28;;;;;;;3.03;2.60;;;;;;;25.18;50.30;92840.91;4916648;29;20265;-93
2022/08/19 00:15:55;;;;;;;2.85;2.45;;;;;;;25.13;50.44;92839.13;4905253;29;20110;-93
2022/08/19 00:18:21;;;;;;;3.25;2.35;;;;;;;25.20;50.53;92847.34;4913499;29;20019;-94
2022/08/19 00:20:46;;;;;;;2.53;1.95;;;;;;;25.17;50.49;92842.97;4902034;29;20391;-93
2022/08/19 00:23:12;;;;;;;2.70;2.03;;;;;;;25.12;50.65;92851.50;4887380;29;20042;-94
2022/08/19 00:25:37;;;;;;;3.92;2.00;;;;;;;25.13;50.45;92853.69;4887421;29;20032;-93
2022/08/19 00:28:04;;;;;;;2.90;2.55;;;;;;;25.12;50.55;92860.53;4899597;29;20039;-93
2022/08/19 00:30:29;;;;;;;2.83;2.25;;;;;;;25.15;50.46;92855.88;4883917;29;20035;-93
2022/08/19 00:32:56;;;;;;;2.63;2.42;;;;;;;25.16;50.44;92860.13;4886279;29;20332;-94
2022/08/19 00:35:25;;;;;;;2.83;2.08;;;;;;;25.13;50.43;92850.91;4885946;29;20023;-93
2022/08/19 00:37:50;;;;;;;3.42;2.15;;;;;;;25.12;50.35;92860.53;4902390;29;20479;-93
2022/08/19 00:40:16;;;;;;;2.88;2.25;;;;;;;25.18;50.32;92854.75;4886379;29;20028;-94
2022/08/19 00:42:41;;;;;;;2.92;2.47;;;;;;;25.20;50.42;92866.72;4886593;29;20399;-94
2022/08/19 00:45:16;;;;;;;2.38;2.08;;;;;;;25.11;50.28;92869.41;4901249;29;20035;-94
2022/08/19 00:47:42;;;;;;;3.22;2.10;;;;;;;25.13;50.46;92886.88;4886840;29;20027;-95
2022/08/19 00:50:08;;;;;;;2.47;1.83;;;;;;;25.12;50.45;92893.72;4897498;29;20038;-95
2022/08/19 00:52:36;;;;;;;3.28;2.60;;;;;;;25.09;50.46;92885.84;4904851;29;20475;-94
2022/08/19 00:55:03;;;;;;;2.25;1.77;;;;;;;25.10;50.50;92888.03;4886814;29;20019;-93
2022/08/19 00:57:32;;;;;;;3.25;2.42;;;;;;;25.13;50.28;92886.16;4886448;29;20032;-93
2022/08/19 00:59:58;;;;;;;2.90;2.40;;;;;;;25.12;50.26;92888.19;4895935;29;20047;-94
2022/08/19 01:02:24;;;;;;;2.28;1.88;;;;;;;25.11;50.28;92892.28;4882465;29;20396;-93
2022/08/19 01:04:50;;;;;;;2.90;2.28;;;;;;;25.10;50.41;92887.31;4883177;29;20035;-93
2022/08/19 01:07:15;;;;;;;2.75;2.10;;;;;;;25.13;50.43;92883.38;4883937;29;20109;-94
2022/08/19 01:09:40;;;;;;;1.98;1.70;;;;;;;25.10;50.41;92881.78;4894770;29;20392;-93
2022/08/19 01:12:06;;;;;;;2.72;1.67;;;;;;;25.11;50.29;92883.25;4904740;29;20031;-93
2022/08/19 01:14:32;;;;;;;2.08;1.77;;;;;;;25.09;50.34;92908.69;4921053;29;20090;-93
2022/08/19 01:16:59;;;;;;;2.95;1.83;;;;;;;25.09;50.17;92910.72;4904188;29;20034;-93
2022/08/19 01:19:28;;;;;;;2.08;1.88;;;;;;;25.12;50.32;92920.63;4901007;29;20019;-94
2022/08/19 01:22:18;;;;;;;2.70;2.13;;;;;;;25.14;50.29;92916.00;4886912;29;20032;-93
2022/08/19 01:24:44;;;;;;;3.90;2.45;;;;;;;25.13;50.28;92911.03;4903955;29;20019;-94
2022/08/19 01:27:09;;;;;;;2.50;2.00;;;;;;;25.08;50.49;92904.47;4885995;29;20058;-94
2022/08/19 01:29:37;;;;;;;2.22;2.00;;;;;;;25.08;50.45;92896.16;4901280;29;20031;-93
2022/08/19 01:32:02;;;;;;;2.47;1.80;;;;;;;25.06;50.29;92898.03;4885213;29;20505;-93
2022/08/19 01:34:28;;;;;;;2.22;1.95;;;;;;;25.08;50.52;92887.13;4886258;29;20028;-94
2022/08/19 01:36:53;;;;;;;2.13;1.92;;;;;;;25.06;50.42;92898.03;4885738;29;20032;-93
2022/08/19 01:39:23;;;;;;;2.65;2.13;;;;;;;25.11;50.38;92894.31;4885815;29;20032;-92
2022/08/19 01:41:49;;;;;;;2.15;1.63;;;;;;;25.13;50.16;92883.38;4886844;29;20110;-94
2022/08/19 01:44:15;;;;;;;2.40;2.08;;;;;;;25.15;50.13;92869.72;4885977;29;20114;-93
2022/08/19 01:46:41;;;;;;;2.75;1.90;;;;;;;25.07;50.34;92878.09;4885793;29;20095;-93
2022/08/19 01:49:07;;;;;;;2.45;1.80;;;;;;;25.09;50.15;92872.75;4886672;29;20024;-94
2022/08/19 01:51:33;;;;;;;2.58;1.75;;;;;;;25.07;50.25;92867.03;4885706;29;20039;-93
2022/08/19 01:53:58;;;;;;;3.13;2.15;;;;;;;25.05;50.23;92863.38;4901669;29;20035;-92
2022/08/19 01:56:24;;;;;;;2.97;1.77;;;;;;;25.08;50.08;92865.75;4885369;29;20459;-92
2022/08/19 01:58:53;;;;;;;2.83;1.88;;;;;;;25.06;50.18;92865.59;4885731;29;20032;-94
2022/08/19 02:01:19;;;;;;;2.40;1.95;;;;;;;25.02;50.43;92881.84;4885432;29;20059;-94
2022/08/19 02:03:44;;;;;;;2.35;1.80;;;;;;;25.03;50.34;92877.78;4901672;29;20368;-92
2022/08/19 02:06:10;;;;;;;1.65;1.50;;;;;;;25.10;50.02;92879.00;4901547;29;20027;-93
2022/08/19 02:08:36;;;;;;;2.88;1.80;;;;;;;25.11;50.09;92881.22;4888014;29;20028;-92
2022/08/19 02:11:03;;;;;;;2.40;2.00;;;;;;;25.12;50.26;92870.84;4887924;29;20068;-93
2022/08/19 02:13:28;;;;;;;2.15;1.80;;;;;;;25.07;50.13;92874.59;4899418;29;20031;-92
2022/08/19 02:15:54;;;;;;;2.25;1.73;;;;;;;25.06;50.17;92864.84;4903335;29;20039;-93
2022/08/19 02:18:19;;;;;;;2.45;2.03;;;;;;;25.09;50.17;92855.41;4915910;29;20028;-95
2022/08/19 02:20:46;;;;;;;1.92;1.63;;;;;;;25.07;50.10;92844.91;4884809;29;20031;-94
2022/08/19 02:23:12;;;;;;;2.65;1.92;;;;;;;25.02;50.34;92845.88;4886763;29;20031;-92
2022/08/19 02:25:37;;;;;;;2.25;1.98;;;;;;;24.97;50.48;92835.78;4888747;29;20035;-93
2022/08/19 02:28:03;;;;;;;3.65;1.80;;;;;;;24.96;50.61;92828.06;4903741;29;20506;-92
2022/08/19 02:30:29;;;;;;;3.00;1.98;;;;;;;24.99;50.41;92819.38;4888950;29;20038;-94
2022/08/19 02:32:54;;;;;;;1.48;1.30;;;;;;;25.00;50.23;92814.56;4904214;29;20053;-95
2022/08/19 02:35:20;;;;;;;3.00;1.98;;;;;;;25.04;50.42;92812.88;4888534;29;20028;-93
2022/08/19 02:40:33;;;;;;;2.35;1.77;;;;;;;24.99;50.10;92802.03;4903722;29;20050;-93
2022/08/19 02:42:59;;;;;;;2.13;1.77;;;;;;;24.99;50.30;92813.84;4886029;29;20024;-93
2022/08/19 02:45:24;;;;;;;2.67;2.00;;;;;;;25.00;50.23;92812.53;4888442;29;20019;-93
2022/08/19 02:47:49;;;;;;;1.83;1.52;;;;;;;25.02;50.27;92826.53;4888635;29;20079;-94
2022/08/19 02:50:15;;;;;;;2.35;1.45;;;;;;;25.01;50.32;92832.63;4887642;29;20407;-93
2022/08/19 02:52:41;;;;;;;1.90;1.65;;;;;;;25.02;50.16;92854.19;4888752;29;20027;-94
2022/08/19 02:55:07;;;;;;;1.63;1.40;;;;;;;24.99;50.10;92860.84;4888453;29;20028;-94
2022/08/19 02:57:33;;;;;;;2.00;1.75;;;;;;;24.99;50.35;92858.06;4887705;29;20521;-94
2022/08/19 02:59:59;;;;;;;2.25;1.60;;;;;;;25.00;50.08;92856.78;4888673;29;20054;-93
2022/08/19 03:02:24;;;;;;;2.03;1.60;;;;;;;25.01;50.19;92858.25;4888685;29;20023;-94
2022/08/19 03:04:50;;;;;;;2.65;1.70;;;;;;;24.96;50.35;92841.88;4903664;29;20027;-92
2022/08/19 03:07:16;;;;;;;2.30;1.95;;;;;;;24.98;50.15;92855.88;4887463;29;20136;-93
2022/08/19 03:09:42;;;;;;;2.08;1.77;;;;;;;25.00;50.36;92858.81;4895154;29;20056;-94
2022/08/19 03:12:07;;;;;;;1.90;1.63;;;;;;;24.98;50.28;92853.84;4913039;29;20034;-93
2022/08/19 03:14:33;;;;;;;1.83;1.58;;;;;;;24.99;50.40;92860.84;4906711;29;20169;-94
2022/08/19 03:16:59;;;;;;;2.08;1.83;;;;;;;25.02;49.97;92870.03;4894074;29;20028;-93
2022/08/19 03:19:24;;;;;;;1.90;1.60;;;;;;;24.98;50.30;92873.22;4887265;29;20566;-93
2022/08/19 03:21:50;;;;;;;2.42;1.80;;;;;;;24.96;50.34;92884.09;4887512;29;20032;-92
2022/08/19 03:24:16;;;;;;;2.33;1.63;;;;;;;24.97;50.04;92890.34;4903476;29;20027;-93
2022/08/19 03:26:43;;;;;;;1.75;1.33;;;;;;;25.03;50.37;92910.97;4903205;29;20114;-94
2022/08/19 03:29:10;;;;;;;2.65;1.60;;;;;;;24.99;50.08;92913.38;4887922;29;20038;-94
2022/08/19 03:31:36;;;;;;;2.38;1.70;;;;;;;25.02;50.00;92915.03;4887749;29;20063;-93
2022/08/19 03:34:02;;;;;;;2.15;1.65;;;;;;;25.02;50.08;92909.50;4886949;29;20066;-93
2022/08/19 03:36:27;;;;;;;2.40;1.80;;;;;;;25.04;50.01;92912.44;4887861;29;20028;-95
2022/08/19 03:38:55;;;;;;;1.80;1.25;;;;;;;24.99;49.97;92913.38;4903470;29;20506;-92
2022/08/19 03:41:25;;;;;;;2.33;1.63;;;;;;;25.00;50.11;92912.09;4902627;29;20034;-93
2022/08/19 03:43:51;;;;;;;1.93;1.40;;;;;;;24.98;50.12;92903.63;4887569;29;20106;-92
2022/08/19 03:46:22;;;;;;;2.03;1.83;;;;;;;24.96;50.32;92902.72;4887613;29;20078;-94
2022/08/19 03:48:48;;;;;;;1.63;1.30;;;;;;;24.97;50.10;92909.72;4888439;29;20024;-94
2022/08/19 03:51:21;;;;;;;1.95;1.73;;;;;;;25.01;50.11;92913.56;4901840;29;20039;-93
2022/08/19 03:53:46;;;;;;;2.38;1.75;;;;;;;24.93;50.12;92924.66;4884130;29;20024;-94
2022/08/19 03:56:12;;;;;;;2.78;1.90;;;;;;;24.97;50.03;92926.31;4900499;29;20447;-94
2022/08/19 03:58:38;;;;;;;1.75;1.45;;;;;;;25.00;49.93;92930.72;4884594;29;20028;-94
2022/08/19 04:01:07;;;;;;;2.95;1.77;;;;;;;24.96;50.37;92922.06;4886328;29;20040;-93
2022/08/19 04:03:34;;;;;;;2.08;1.60;;;;;;;24.97;50.12;92915.25;4887387;29;20096;-93
2022/08/19 04:05:59;;;;;;;3.25;1.73;;;;;;;25.00;50.16;92911.34;4901265;29;20059;-92
2022/08/19 04:08:25;;;;;;;2.28;1.67;;;;;;;24.94;50.44;92922.63;4885680;29;20969;-92
2022/08/19 04:10:51;;;;;;;1.70;1.60;;;;;;;24.98;49.97;92927.78;4901743;29;20040;-94
2022/08/19 04:13:17;;;;;;;2.10;1.75;;;;;;;24.98;50.28;92941.59;4913870;29;20061;-92
2022/08/19 04:15:43;;;;;;;1.70;1.60;;;;;;;24.96;50.05;92933.88;4882298;29;20032;-95
2022/08/19 04:18:09;;;;;;;2.50;1.77;;;;;;;24.96;50.16;92958.03;4845411;29;20429;-93
2022/08/19 04:20:44;;;;;;;1.98;1.67;;;;;;;24.96;50.31;92969.09;4863980;29;20036;-93
2022/08/19 04:23:10;;;;;;;1.88;1.33;;;;;;;24.96;50.23;92964.28;4863951;29;20072;-93
2022/08/19 04:25:41;;;;;;;2.25;1.70;;;;;;;24.96;50.20;92966.31;4863283;29;20497;-93
2022/08/19 04:28:11;;;;;;;2.33;2.05;;;;;;;24.98;50.00;92972.03;4848542;29;20038;-93
2022/08/19 04:30:50;;;;;;;2.97;1.70;;;;;;;25.00;49.98;92975.69;4853833;29;20061;-93
2022/08/19 04:33:19;;;;;;;4.15;3.45;;;;;;;25.01;50.16;92991.00;4889673;29;20491;-92
2022/08/19 04:35:51;;;;;;;8.35;5.32;;;;;;;24.90;51.21;92992.13;4870516;29;20040;-93
2022/08/19 04:38:20;;;;;;;14.63;7.10;;;;;;;24.79;51.94;92997.38;4919239;29;20044;-93
2022/08/19 04:43:39;;;;;;;11.02;9.82;;;;;;;24.71;52.91;93024.34;4904435;29;20051;-90
2022/08/19 04:46:30;;;;;;;12.45;10.23;;;;;;;24.63;53.51;93037.47;4903149;29;20091;-91
2022/08/19 04:48:58;;;;;;;23.50;13.38;;;;;;;24.58;53.82;93050.94;4887139;29;20047;-94
2022/08/19 04:51:34;;;;;;;23.10;13.05;;;;;;;24.46;54.15;93052.66;4935840;23;20044;-94
2022/08/19 04:54:01;;;;;;;18.10;13.18;;;;;;;24.18;55.36;93045.38;4902057;29;20509;-94
2022/08/19 04:56:26;;;;;;;18.67;13.38;;;;;;;24.07;55.75;93050.56;4886319;29;20067;-95
2022/08/19 04:58:53;;;;;;;17.27;14.25;;;;;;;24.10;55.79;93050.19;4901847;29;20106;-95
2022/08/19 05:01:20;;;;;;;17.05;14.02;;;;;;;23.99;56.39;93044.34;4901474;29;20518;-92
2022/08/19 05:03:49;;;;;;;21.50;15.20;;;;;;;24.01;56.35;93042.50;4901383;29;20042;-95
2022/08/19 05:06:15;;;;;;;19.88;14.30;;;;;;;23.95;56.50;93032.94;4888168;29;20041;-93
2022/08/19 05:08:46;;;;;;;25.70;16.75;;;;;;;23.87;56.91;93030.91;4965063;23;20011;-93
2022/08/19 05:11:25;;;;;;;26.38;15.95;;;;;;;23.75;57.28;93031.88;4886888;29;20041;-93
2022/08/19 05:13:52;;;;;;;22.33;15.70;;;;;;;23.69;57.50;93029.31;4836977;29;20040;-92
2022/08/19 05:16:19;;;;;;;21.45;15.18;;;;;;;23.78;57.07;93034.28;4884954;29;20055;-92
2022/08/19 05:26:52;;;;;;;26.48;15.48;;;;;;;23.65;57.57;93006.13;4940515;29;20059;-94
2022/08/19 05:29:40;;;;;;;18.63;15.15;;;;;;;23.69;57.65;92995.44;4926297;29;20557;-95
2022/08/19 05:32:19;;;;;;;21.08;15.50;;;;;;;23.72;57.56;92997.84;4906698;29;20091;-93
2022/08/19 05:34:45;;;;;;;17.15;13.60;;;;;;;23.80;57.63;92981.28;4928962;23;20047;-94
2022/08/19 05:37:12;;;;;;;17.20;13.02;;;;;;;23.69;57.62;92957.56;4946722;29;20058;-92
2022/08/19 05:39:40;;;;;;;20.60;13.68;;;;;;;23.76;57.57;92945.03;4924305;29;20540;-88
2022/08/19 05:42:08;;;;;;;26.05;15.07;;;;;;;23.83;57.31;92956.03;4904927;29;20111;-90
2022/08/19 05:44:36;;;;;;;30.83;15.18;;;;;;;23.84;57.35;92976.81;4918278;29;20050;-89
2022/08/19 05:47:04;;;;;;;16.40;13.85;;;;;;;23.84;57.92;92995.41;4943114;29;20022;-94
2022/08/19 05:49:33;;;;;;;29.88;17.65;;;;;;;23.76;58.15;92992.69;4949362;23;20059;-90
2022/08/19 05:52:00;;;;;;;30.10;17.15;;;;;;;23.73;58.35;92979.25;4926566;29;20127;-91
2022/08/19 05:54:54;;;;;;;45.65;18.77;;;;;;;23.51;59.08;92969.72;4967083;23;20046;-93
2022/08/19 05:57:34;;;;;;;37.17;18.95;;;;;;;23.49;58.92;92953.72;4927787;29;20111;-94
2022/08/19 06:00:01;;;;;;;23.45;15.45;;;;;;;23.33;59.93;92943.28;4945157;29;20039;-94
2022/08/19 06:02:50;;;;;;;25.00;16.67;;;;;;;23.23;60.08;92949.34;4982980;23;20036;31
2022/08/19 06:05:16;;;;;;;25.77;17.35;;;;;;;23.31;60.15;92943.81;4943287;29;20503;-93
2022/08/19 06:07:43;;;;;;;24.83;17.83;;;;;;;23.22;60.34;92934.09;4907619;29;20051;-94
2022/08/19 06:10:12;;;;;;;24.60;16.35;;;;;;;23.35;60.06;92935.91;4922086;29;20151;-94
2022/08/19 06:12:38;;;;;;;24.00;16.10;;;;;;;23.14;60.38;92941.66;4937418;29;20024;-95
2022/08/19 06:15:09;;;;;;;25.83;15.57;;;;;;;23.19;60.59;92932.44;4923743;29;20035;-96
2022/08/19 06:17:34;;;;;;;25.35;17.15;;;;;;;23.01;61.13;92917.03;4910720;29;20043;-92
2022/08/19 06:20:06;;;;;;;19.48;15.07;;;;;;;22.99;61.76;92908.56;4928807;29;20020;-90
2022/08/19 06:22:44;;;;;;;20.40;15.05;;;;;;;23.13;60.78;92901.59;4935638;29;20042;-92
2022/08/19 06:25:14;;;;;;;21.45;15.00;;;;;;;23.14;60.57;92896.81;4921814;29;20028;-94
2022/08/19 06:27:40;;;;;;;25.83;18.02;;;;;;;23.16;60.58;92891.47;4929491;29;20031;-95
2022/08/19 06:30:06;;;;;;;27.13;16.67;;;;;;;23.17;60.92;92896.41;4911725;29;20038;-96
2022/08/19 06:32:42;;;;;;;27.77;17.75;;;;;;;23.28;60.49;92905.59;4907251;29;20159;-94
2022/08/19 06:35:14;;;;;;;26.88;17.35;;;;;;;23.13;60.90;92909.13;4938603;29;20028;-96
2022/08/19 06:37:43;;;;;;;35.58;24.42;;;;;;;22.98;61.43;92912.59;4915512;29;20126;-95
2022/08/19 06:40:16;;;;;;;26.95;18.60;;;;;;;23.07;60.95;92905.81;4922723;23;20060;-94
2022/08/19 06:42:44;;;;;;;40.65;18.02;;;;;;;23.12;61.14;92910.41;4913986;29;20052;-94
2022/08/19 06:53:45;;;;;;;26.83;19.98;;;;;;;23.02;61.53;92931.53;5042659;23;20052;-93
2022/08/19 06:56:11;;;;;;;41.88;25.20;;;;;;;23.05;61.68;92936.69;4893234;29;20040;-92
2022/08/19 06:58:37;;;;;;;51.55;25.67;;;;;;;23.03;61.79;92936.50;4883570;29;20368;-91
2022/08/19 07:01:03;;;;;;;54.65;24.58;;;;;;;23.00;61.49;92959.66;4883523;29;20036;-91
2022/08/19 07:03:30;;;;;;;35.53;18.85;;;;;;;22.91;61.81;92960.22;4883807;29;20044;-90
2022/08/19 07:05:56;;;;;;;27.83;17.60;;;;;;;22.96;61.72;92977.84;4884652;29;20480;-91
2022/08/19 07:08:22;;;;;;;27.08;16.63;;;;;;;22.96;62.16;92992.38;4879704;29;20040;-91
2022/08/19 07:10:48;;;;;;;28.25;16.25;;;;;;;23.05;61.61;92996.59;4881296;29;20254;-90
2022/08/19 07:13:14;;;;;;;21.90;15.43;;;;;;;23.19;61.62;93001.38;4884275;29;20029;-90
2022/08/19 07:15:39;;;;;;;20.85;15.70;;;;;;;23.21;62.00;93003.59;4883693;29;20143;-91
2022/08/19 07:18:05;;;;;;;22.02;15.95;;;;;;;23.26;61.80;92994.41;4903031;29;20035;-88
2022/08/19 07:20:31;;;;;;;22.35;16.20;;;;;;;23.21;61.64;92985.00;4922810;29;20020;-92
2022/08/19 07:22:56;;;;;;;22.63;15.88;;;;;;;23.22;61.86;92980.97;4897010;29;20028;-88
2022/08/19 07:25:22;;;;;;;23.13;15.57;;;;;;;23.28;61.66;92993.84;4885293;29;20063;-90
2022/08/19 07:28:04;;;;;;;24.02;15.40;;;;;;;23.27;61.54;93000.63;4884985;29;20044;-92
2022/08/19 07:30:36;;;;;;;17.05;14.52;;;;;;;23.13;62.17;93013.91;4887290;29;20036;-92
2022/08/19 07:33:03;;;;;;;23.25;16.60;;;;;;;23.17;62.17;93006.69;4899935;29;20024;-90
2022/08/19 07:35:31;;;;;;;22.13;16.52;;;;;;;23.27;62.08;93011.66;4899617;29;20502;-92
2022/08/19 07:37:57;;;;;;;19.65;15.77;;;;;;;23.33;61.51;93012.22;4890315;29;20488;-90
2022/08/19 07:40:23;;;;;;;22.88;15.70;;;;;;;23.27;61.56;93006.91;4871616;29;20063;-90
2022/08/19 07:42:49;;;;;;;20.00;16.67;;;;;;;23.33;60.95;93012.22;4894000;29;20020;-94
2022/08/19 07:45:17;;;;;;;21.70;15.65;;;;;;;23.34;61.13;93006.16;4915597;29;20024;-92
2022/08/19 07:47:54;;;;;;;19.33;15.57;;;;;;;23.21;61.69;93011.84;4892648;29;20880;-94
2022/08/19 07:50:31;;;;;;;17.77;14.55;;;;;;;23.19;61.66;93003.41;4859952;29;20048;-95
2022/08/19 07:52:57;;;;;;;18.63;14.48;;;;;;;23.23;61.28;92998.97;4852970;29;20056;-94
2022/08/19 07:55:24;;;;;;;19.77;15.27;;;;;;;23.20;61.61;92994.56;4844898;29;20050;-92
2022/08/19 07:57:49;;;;;;;79.00;20.80;;;;;;;23.20;61.72;93000.09;4844373;29;20032;-92
2022/08/19 08:00:15;;;;;;;17.65;13.95;;;;;;;23.17;61.74;92997.69;4845510;29;20048;-91
2022/08/19 08:02:42;;;;;;;24.45;15.27;;;;;;;23.22;61.51;92985.75;4842064;29;20065;-91
2022/08/19 08:10:54;;;;;;;19.73;14.52;;;;;;;23.23;61.08;92976.19;4900768;29;20044;-92
2022/08/19 08:13:22;;;;;;;18.60;14.13;;;;;;;23.31;60.66;92960.38;4902966;23;20048;-93
2022/08/19 08:15:48;;;;;;;18.70;15.52;;;;;;;23.16;61.63;92957.66;4840925;29;20077;-93
2022/08/19 08:18:14;;;;;;;20.08;15.45;;;;;;;23.21;61.58;92962.22;4866410;29;20037;-92
2022/08/19 08:20:40;;;;;;;16.55;14.75;;;;;;;23.12;62.00;92982.09;4876203;29;20118;-94
2022/08/19 08:23:26;;;;;;;16.65;13.20;;;;;;;23.19;61.55;92973.06;4863789;29;20544;-95
2022/08/19 08:25:52;;;;;;;18.30;14.90;;;;;;;23.17;61.52;92959.81;4897217;29;20115;-93
2022/08/19 08:28:18;;;;;;;20.40;15.30;;;;;;;23.21;61.37;92962.22;4865902;29;20404;-93
2022/08/19 08:30:47;;;;;;;19.23;15.25;;;;;;;23.26;60.83;92966.81;4861044;29;20068;-92
2022/08/19 08:33:13;;;;;;;18.60;14.40;;;;;;;23.17;60.85;92973.63;4860678;29;20088;-92
2022/08/19 08:35:41;;;;;;;18.27;14.55;;;;;;;23.15;60.89;92984.50;4869807;29;20037;-92
2022/08/19 08:38:07;;;;;;;20.10;14.60;;;;;;;23.32;60.81;92970.13;4860082;29;20106;-92
2022/08/19 08:40:54;;;;;;;18.80;13.57;;;;;;;23.29;60.27;92970.50;4858383;29;20041;-92
2022/08/19 08:43:22;;;;;;;18.42;14.57;;;;;;;23.28;60.20;92972.50;4864269;29;20063;-95
2022/08/19 08:45:53;;;;;;;26.75;18.38;;;;;;;23.22;60.31;92967.19;4884220;29;20045;-94
2022/08/19 08:48:31;;;;;;;;;;;;;;;23.33;59.76;92951.56;4862341;29;20035;-93
2022/08/19 08:50:58;;;;;;;23.55;17.60;;;;;;;23.26;60.16;92955.78;4911034;29;19945;-95
2022/08/19 08:53:30;;;;;;;34.75;22.52;;;;;;;23.09;60.18;92950.84;4886440;29;20446;-94
2022/08/19 08:56:01;;;;;;;25.13;18.83;;;;;;;23.17;59.88;92937.75;4881908;29;20043;-93
2022/08/19 08:58:32;;;;;;;;;;;;;;;23.19;59.86;92934.47;4852627;29;20127;-92
2022/08/19 09:00:58;;;;;;;28.65;18.80;;;;;;;23.13;60.20;92936.69;4868234;29;19919;-94
2022/08/19 09:03:25;;;;;;;32.50;22.58;;;;;;;23.10;60.31;92938.53;4894155;29;20036;-91
2022/08/19 09:06:00;;;;;;;42.90;27.73;;;;;;;23.13;60.61;92937.44;4862768;29;20035;-92
2022/08/19 09:08:39;;;;;;;43.50;31.38;;;;;;;23.20;60.33;92933.91;4882846;29;20043;-94
2022/08/19 09:11:08;;;;;;;46.58;33.05;;;;;;;23.19;60.58;92937.94;4857658;29;20095;-93
2022/08/19 09:13:52;;;;;;;56.20;38.38;;;;;;;23.22;60.90;92941.63;4884692;29;20468;-94
2022/08/19 09:16:20;;;;;;;38.92;29.65;;;;;;;23.19;60.70;92948.97;4927305;23;20040;-96
2022/08/19 09:18:51;;;;;;;34.58;24.63;;;;;;;23.21;60.61;92954.69;4925266;29;20118;-94
2022/08/19 09:21:18;;;;;;;35.45;23.80;;;;;;;23.25;60.60;92951.56;4926296;29;20023;-94
2022/08/19 09:23:44;;;;;;;41.22;26.98;;;;;;;23.21;60.94;92954.69;4937925;29;20035;-94
2022/08/19 09:26:15;;;;;;;87.18;58.42;;;;;;;23.24;60.92;92950.81;4921168;29;20052;-95
2022/08/19 09:28:52;;;;;;;96.13;59.45;;;;;;;23.28;60.92;92952.47;4937293;29;20039;-94
2022/08/19 09:31:32;;;;;;;83.85;54.03;;;;;;;23.28;60.97;92952.47;4933583;29;20035;-95
2022/08/19 09:34:04;;;;;;;72.15;43.63;;;;;;;23.31;60.73;92948.59;4910379;29;20035;-93
2022/08/19 09:36:54;;;;;;;56.83;37.53;;;;;;;23.34;60.46;92956.50;4941399;29;20039;-95
2022/08/19 09:40:06;;;;;;;;;;;;;;;;;;;;;
2022/08/19 09:43:15;;;;;;;66.93;33.28;;;;;;;23.38;60.72;92953.38;4885986;29;20290;-95
2022/08/19 09:45:41;;;;;;;39.50;24.98;;;;;;;23.42;60.90;92967.50;4894395;29;20028;-94
2022/08/19 09:48:07;;;;;;;29.92;21.75;;;;;;;23.46;60.91;92965.13;5096259;23;20092;-93
2022/08/19 09:56:49;;;;;;;22.38;18.17;;;;;;;23.51;60.81;92975.97;5063077;23;20064;-94
2022/08/19 09:59:29;;;;;;;23.20;16.98;;;;;;;23.58;60.50;92988.31;4849949;29;20501;-95
2022/08/19 10:02:24;;;;;;;27.55;18.33;;;;;;;23.64;60.46;92990.84;4893957;29;20934;-95
2022/08/19 10:07:48;;;;;;;60.47;23.77;;;;;;;23.65;60.42;92984.78;5191380;23;20064;-95
2022/08/19 10:10:56;;;;;;;60.95;23.38;;;;;;;23.70;60.16;92988.66;4871765;29;20169;-94
2022/08/19 10:16:13;;;;;;;28.20;17.00;;;;;;;23.76;59.84;92992.69;5432303;23;20307;-95
2022/08/19 10:19:20;;;;;;;33.72;19.58;;;;;;;23.76;59.89;92986.44;4908846;29;20184;-95
2022/08/19 10:22:37;;;;;;;22.65;15.63;;;;;;;23.79;59.94;92980.53;4847589;29;20044;-95
2022/08/19 10:25:06;;;;;;;28.45;16.90;;;;;;;23.87;59.74;92970.19;4910716;23;20076;-93
2022/08/19 10:53:25;;;;;;;44.70;13.85;;;;;;;24.06;59.26;92938.63;5445639;23;20055;-95
2022/08/19 11:12:15;;;;;;;15.98;10.68;;;;;;;24.15;58.12;92915.94;4944859;23;20052;-91
2022/08/19 11:14:46;;;;;;;16.08;10.85;;;;;;;24.26;57.75;92919.03;4907064;29;20135;-91
2022/08/19 11:17:15;;;;;;;14.98;9.98;;;;;;;24.26;57.72;92915.53;4901534;29;20122;-93
2022/08/19 11:22:17;;;;;;;13.27;10.80;;;;;;;24.25;57.80;92914.81;6020943;23;20021;-94
2022/08/19 11:25:00;;;;;;;11.95;9.80;;;;;;;24.27;57.66;92897.66;4889632;29;20036;-92
2022/08/19 11:32:36;;;;;;;15.35;10.80;;;;;;;24.35;57.50;92909.41;5052868;23;20052;-91
2022/08/19 11:36:01;;;;;;;11.57;9.73;;;;;;;24.33;57.48;92906.47;4913249;29;20026;-93
2022/08/19 11:38:30;;;;;;;11.18;8.85;;;;;;;24.35;57.47;92906.66;4971149;23;20048;-94
2022/08/19 11:41:16;;;;;;;11.40;9.23;;;;;;;24.38;57.37;92913.09;4894864;29;20218;-92
2022/08/19 11:43:49;;;;;;;9.65;7.93;;;;;;;24.41;57.31;92917.50;4882187;29;20132;-91
2022/08/19 11:46:22;;;;;;;13.82;8.50;;;;;;;24.37;57.35;92914.38;4855919;29;20033;-93
2022/08/19 11:48:53;;;;;;;11.80;8.82;;;;;;;24.41;57.07;92909.19;4866701;29;20032;-92
2022/08/19 11:51:26;;;;;;;10.23;8.45;;;;;;;24.38;57.09;92911.06;4831283;29;20041;-93
2022/08/19 11:54:07;;;;;;;10.27;9.02;;;;;;;24.37;57.09;92914.38;4829937;29;20121;-91
2022/08/19 11:56:41;;;;;;;12.38;8.80;;;;;;;24.36;56.91;92910.88;4815664;29;20098;-92
2022/08/19 11:59:23;;;;;;;;;;;;;;;;;;;;;
2022/08/19 12:02:04;;;;;;;10.48;7.72;;;;;;;24.36;56.97;92919.16;4815328;29;20056;-91
2022/08/19 12:05:02;;;;;;;9.70;7.75;;;;;;;24.34;57.14;92919.00;4843310;29;20041;-92
2022/08/19 12:07:36;;;;;;;9.77;8.27;;;;;;;24.42;56.65;92925.22;4829397;29;20042;-92
2022/08/19 12:10:22;;;;;;;17.73;9.68;;;;;;;24.39;57.13;92923.56;4832256;29;20398;-90
2022/08/19 12:13:05;;;;;;;10.02;7.97;;;;;;;24.42;56.77;92925.22;4869989;29;20124;-92
2022/08/19 12:15:59;;;;;;;9.15;7.40;;;;;;;24.44;56.87;92916.38;4831525;29;20046;-93
2022/08/19 12:18:35;;;;;;;8.35;7.28;;;;;;;24.49;56.68;92913.38;4827928;29;20034;-93
2022/08/19 12:21:27;;;;;;;8.25;6.85;;;;;;;24.49;56.68;92910.59;4811572;29;20049;-93
2022/08/19 12:24:20;;;;;;;10.52;7.45;;;;;;;24.54;56.48;92906.16;4824524;29;20042;-91
2022/08/19 12:27:02;;;;;;;7.57;6.43;;;;;;;24.53;56.43;92902.66;4773400;30;20059;-92
2022/08/19 12:29:50;;;;;;;8.25;6.43;;;;;;;24.54;56.44;92901.38;4752443;30;20064;-92
2022/08/19 12:32:25;;;;;;;7.30;6.38;;;;;;;24.54;56.34;92911.69;4754187;30;20078;-93
2022/08/19 12:35:10;;;;;;;7.93;6.57;;;;;;;24.55;56.39;92913.16;4738980;30;20044;-92
2022/08/19 12:37:37;;;;;;;10.65;6.72;;;;;;;24.58;56.11;92898.22;4753526;30;20040;-92
2022/08/19 12:40:26;;;;;;;8.73;6.85;;;;;;;24.55;56.31;92889.00;4738486;30;20501;-91
2022/08/19 12:43:26;;;;;;;7.72;5.85;;;;;;;24.59;56.24;92889.34;4740046;30;20064;-93
2022/08/19 12:46:33;;;;;;;11.38;6.68;;;;;;;24.55;56.31;92894.53;4755231;30;20072;-93
2022/08/19 12:49:37;;;;;;;6.45;5.47;;;;;;;24.57;56.16;92889.19;4739441;30;20094;-92
2022/08/19 12:52:30;;;;;;;6.65;5.63;;;;;;;24.57;56.28;92900.25;4728914;30;20040;-93
2022/08/19 12:55:15;;;;;;;6.75;5.78;;;;;;;24.57;56.30;92919.59;4721562;30;20502;-93
2022/08/19 12:58:03;;;;;;;6.20;4.55;;;;;;;24.60;56.26;92928.78;4732894;23;20079;-93
2022/08/19 13:01:20;;;;;;;9.85;5.65;;;;;;;24.63;56.12;92921.41;4891452;29;20080;-92
2022/08/19 13:04:07;;;;;;;6.15;5.40;;;;;;;24.64;56.10;92912.53;4899769;29;20135;-93
2022/08/19 13:06:58;;;;;;;6.80;5.47;;;;;;;24.67;55.85;92907.91;4887222;29;20507;-93
2022/08/19 13:09:51;;;;;;;5.65;5.10;;;;;;;24.66;56.12;92917.50;4874880;29;20039;-93
2022/08/19 13:12:41;;;;;;;5.10;4.60;;;;;;;24.68;55.76;92923.22;4902347;29;20032;-92
2022/08/19 13:15:47;;;;;;;;;;;;;;;;;;;;;
2022/08/19 13:18:35;;;;;;;5.80;4.75;;;;;;;24.67;56.17;92918.97;4866538;29;20119;-91
2022/08/19 13:21:24;;;;;;;;;;;;;;;;;;;;;
2022/08/19 13:24:13;;;;;;;5.72;4.78;;;;;;;24.64;56.08;92898.72;4828722;29;20044;-93